Time;durP1;ratioP1;P1;durP2;ratioP2;P2;SDS_P1;SDS_P2;PMS_P1;PMS_P2;Temp;Humidity;BMP_temperature;BMP_pressure;BME280_temperature;BME280_humidity;BME280_pressure;Samples;Min_cycle;Max_cycle;Signal;HPM_P1;HPM_P2
2023/04/09 00:01:11;;;;;;;12.33;10.20;;;6.50;99.90;;;;;;5016392;28;20179;-41
2023/04/09 00:03:37;;;;;;;12.57;10.00;;;6.40;99.90;;;;;;5013242;28;20181;-41
2023/04/09 00:06:04;;;;;;;12.50;9.27;;;6.40;99.90;;;;;;5011739;28;20280;-39
2023/04/09 00:08:30;;;;;;;12.60;10.27;;;6.40;99.90;;;;;;5012064;28;20257;-41
2023/04/09 00:10:57;;;;;;;11.33;10.10;;;6.50;99.90;;;;;;5028394;28;20273;-41
2023/04/09 00:13:25;;;;;;;11.67;9.87;;;6.50;99.90;;;;;;5029470;28;20189;-38
2023/04/09 00:15:51;;;;;;;11.70;8.97;;;6.60;99.90;;;;;;4987294;28;20210;-41
2023/04/09 00:18:17;;;;;;;10.40;8.87;;;6.60;99.90;;;;;;5028158;28;20180;-41
2023/04/09 00:20:43;;;;;;;10.30;8.83;;;6.60;99.90;;;;;;5029194;28;20255;-41
2023/04/09 00:23:09;;;;;;;11.13;9.53;;;6.60;99.90;;;;;;5015331;28;20234;-41
2023/04/09 00:25:35;;;;;;;12.17;10.30;;;6.60;99.90;;;;;;5033193;28;20176;-41
2023/04/09 00:28:01;;;;;;;14.43;10.90;;;6.50;99.90;;;;;;5033088;28;20713;-42
2023/04/09 00:30:30;;;;;;;12.10;9.90;;;6.40;99.90;;;;;;5015300;28;20197;-41
2023/04/09 00:32:56;;;;;;;15.33;10.10;;;6.40;99.90;;;;;;5016354;28;20189;-42
2023/04/09 00:35:22;;;;;;;12.93;10.87;;;6.30;99.90;;;;;;4997270;28;20216;-41
2023/04/09 00:37:48;;;;;;;13.10;10.43;;;6.20;99.90;;;;;;5024790;28;20239;-40
2023/04/09 00:40:15;;;;;;;14.40;11.87;;;6.10;99.90;;;;;;5011880;28;20208;-41
2023/04/09 00:42:41;;;;;;;14.27;11.47;;;6.10;99.90;;;;;;5007250;28;20175;-41
2023/04/09 00:45:07;;;;;;;12.17;10.80;;;6.10;99.90;;;;;;5014754;28;20191;-39
2023/04/09 00:47:34;;;;;;;14.97;11.57;;;6.10;99.90;;;;;;5033140;28;20189;-42
2023/04/09 00:50:02;;;;;;;12.43;11.13;;;6.10;99.90;;;;;;5014894;28;20200;-40
2023/04/09 00:52:31;;;;;;;15.87;12.00;;;6.10;99.90;;;;;;5031231;28;20189;-41
2023/04/09 00:54:59;;;;;;;13.83;10.70;;;6.10;99.90;;;;;;5014727;28;20204;-42
2023/04/09 00:57:27;;;;;;;17.40;13.17;;;6.20;99.90;;;;;;4998473;28;20199;-41
2023/04/09 00:59:53;;;;;;;16.10;12.57;;;6.20;99.90;;;;;;5014509;28;20201;-41
2023/04/09 01:02:19;;;;;;;12.70;11.00;;;6.30;99.90;;;;;;5015882;28;20201;-42
2023/04/09 01:04:46;;;;;;;11.20;9.77;;;6.40;99.90;;;;;;5014697;28;20180;-42
2023/04/09 01:07:35;;;;;;;13.87;10.90;;;6.50;99.90;;;;;;5032383;28;20186;-41
2023/04/09 01:10:07;;;;;;;12.60;10.63;;;6.60;99.90;;;;;;5031195;28;20209;-41
2023/04/09 01:12:53;;;;;;;11.20;9.67;;;6.60;99.90;;;;;;5024465;28;20232;-41
2023/04/09 01:15:27;;;;;;;12.33;9.60;;;6.70;99.90;;;;;;5020120;28;20178;-41
2023/04/09 01:18:04;;;;;;;12.77;11.10;;;6.70;99.90;;;;;;5027492;28;20208;-41
2023/04/09 01:20:42;;;;;;;14.63;11.17;;;6.70;99.90;;;;;;4995880;28;20206;-41
2023/04/09 01:23:18;;;;;;;13.43;11.40;;;6.70;99.90;;;;;;5014226;28;20185;-41
2023/04/09 01:25:50;;;;;;;15.40;12.60;;;6.80;99.90;;;;;;5014141;28;20230;-41
2023/04/09 01:28:26;;;;;;;15.30;12.30;;;6.80;99.90;;;;;;5030918;28;20260;-41
2023/04/09 01:31:02;;;;;;;13.83;11.83;;;6.80;99.90;;;;;;5013792;28;20200;-41
2023/04/09 01:33:30;;;;;;;14.00;11.30;;;6.80;99.90;;;;;;5012307;28;20216;-41
2023/04/09 01:35:57;;;;;;;14.73;11.90;;;6.80;99.90;;;;;;5029658;28;20263;-41
2023/04/09 01:38:24;;;;;;;12.77;10.93;;;6.80;99.90;;;;;;5015370;28;20208;-41
2023/04/09 01:44:40;;;;;;;15.00;11.40;;;6.80;99.90;;;;;;5031467;28;20322;-42
2023/04/09 01:47:07;;;;;;;12.27;10.97;;;6.80;99.90;;;;;;5017692;28;20187;-41
2023/04/09 01:49:34;;;;;;;13.30;11.13;;;6.80;99.90;;;;;;5029932;28;20197;-39
2023/04/09 01:52:01;;;;;;;14.57;12.10;;;6.80;99.90;;;;;;5013934;28;20283;-41
2023/04/09 01:54:27;;;;;;;14.43;11.60;;;6.80;99.90;;;;;;5031655;28;20189;-42
2023/04/09 01:56:56;;;;;;;12.73;11.37;;;6.80;99.90;;;;;;5031754;28;20208;-40
2023/04/09 01:59:22;;;;;;;12.97;10.50;;;6.70;99.90;;;;;;5030030;28;20228;-41
2023/04/09 02:01:57;;;;;;;13.63;10.60;;;6.70;99.90;;;;;;5013584;28;20218;-42
2023/04/09 02:04:29;;;;;;;12.60;10.47;;;6.60;99.90;;;;;;5013245;28;20178;-42
2023/04/09 02:07:41;;;;;;;11.83;10.47;;;6.60;99.90;;;;;;5013769;28;20187;-39
2023/04/09 02:10:10;;;;;;;14.40;10.97;;;6.60;99.90;;;;;;5005775;28;20205;-38
2023/04/09 02:12:39;;;;;;;12.60;10.87;;;6.60;99.90;;;;;;5013648;28;20182;-41
2023/04/09 02:15:06;;;;;;;11.73;9.77;;;6.50;99.90;;;;;;4996366;28;20189;-38
2023/04/09 02:17:32;;;;;;;12.90;10.37;;;6.40;99.90;;;;;;5004815;28;20204;-39
2023/04/09 02:19:57;;;;;;;13.43;10.87;;;6.30;99.90;;;;;;5018618;28;20212;-39
2023/04/09 02:22:23;;;;;;;13.57;11.33;;;6.30;99.90;;;;;;5009837;28;20182;-39
2023/04/09 02:24:49;;;;;;;13.27;11.30;;;6.30;99.90;;;;;;5011177;28;20176;-37
2023/04/09 02:27:15;;;;;;;13.00;10.80;;;6.30;99.90;;;;;;5013508;28;20187;-38
2023/04/09 02:29:41;;;;;;;15.83;12.13;;;6.40;99.90;;;;;;5030717;28;20200;-39
2023/04/09 02:32:07;;;;;;;13.90;10.80;;;6.30;99.90;;;;;;5012681;28;20185;-37
2023/04/09 02:34:33;;;;;;;14.17;11.30;;;6.30;99.90;;;;;;5013012;28;20177;-39
2023/04/09 02:36:59;;;;;;;13.10;10.87;;;6.30;99.90;;;;;;5009822;28;20216;-38
2023/04/09 02:39:26;;;;;;;12.77;10.57;;;6.30;99.90;;;;;;5012234;28;20263;-38
2023/04/09 02:41:52;;;;;;;14.27;11.00;;;6.30;99.90;;;;;;5029099;28;20180;-38
2023/04/09 02:44:17;;;;;;;12.70;10.40;;;6.30;99.90;;;;;;5011819;28;20199;-36
2023/04/09 02:46:45;;;;;;;13.40;10.50;;;6.30;99.90;;;;;;5015557;28;20235;-39
2023/04/09 02:49:12;;;;;;;14.53;10.60;;;6.30;99.90;;;;;;4996760;28;20199;-37
2023/04/09 02:51:39;;;;;;;13.83;11.20;;;6.30;99.90;;;;;;5009560;28;20212;-41
2023/04/09 02:54:04;;;;;;;14.03;11.50;;;6.20;99.90;;;;;;4996877;28;20187;-38
2023/04/09 02:56:30;;;;;;;13.50;10.93;;;6.20;99.90;;;;;;5031085;28;20202;-39
2023/04/09 02:58:56;;;;;;;13.97;10.73;;;6.20;99.90;;;;;;5028794;28;20268;-41
2023/04/09 03:01:22;;;;;;;13.47;10.67;;;6.20;99.90;;;;;;5029210;28;20180;-42
2023/04/09 03:03:48;;;;;;;15.73;11.07;;;6.10;99.90;;;;;;5012415;28;20265;-41
2023/04/09 03:06:14;;;;;;;13.93;11.47;;;6.10;99.90;;;;;;5012802;28;20374;-40
2023/04/09 03:08:40;;;;;;;14.53;11.30;;;6.10;99.90;;;;;;5012280;28;20185;-38
2023/04/09 03:11:05;;;;;;;12.90;10.90;;;6.00;99.90;;;;;;5012441;28;20200;-39
2023/04/09 03:13:31;;;;;;;15.37;11.73;;;6.00;99.90;;;;;;5028265;28;20192;-38
2023/04/09 03:15:57;;;;;;;13.57;11.50;;;6.10;99.90;;;;;;5001144;28;20232;-38
2023/04/09 03:18:23;;;;;;;13.17;11.23;;;6.00;99.90;;;;;;5026709;28;20200;-41
2023/04/09 03:20:49;;;;;;;14.40;11.23;;;6.00;99.90;;;;;;5012518;28;20254;-39
2023/04/09 03:23:15;;;;;;;13.20;11.47;;;6.00;99.90;;;;;;5012565;28;20184;-39
2023/04/09 03:25:45;;;;;;;13.63;11.30;;;6.00;99.90;;;;;;5011947;28;20189;-39
2023/04/09 03:28:14;;;;;;;15.07;11.37;;;6.00;99.90;;;;;;5012248;28;20180;-37
2023/04/09 03:30:44;;;;;;;14.27;10.67;;;6.00;99.90;;;;;;5026501;28;20196;-41
2023/04/09 03:33:11;;;;;;;13.23;10.93;;;6.00;99.90;;;;;;5012776;28;20275;-40
2023/04/09 03:36:03;;;;;;;16.00;10.90;;;6.00;99.90;;;;;;5001873;28;20232;-39
2023/04/09 03:38:49;;;;;;;12.47;10.83;;;6.00;99.90;;;;;;5011836;28;20551;-39
2023/04/09 03:41:26;;;;;;;13.53;11.03;;;6.00;99.90;;;;;;5011644;28;20187;-40
2023/04/09 03:43:52;;;;;;;15.17;11.70;;;5.90;99.90;;;;;;5011714;28;20191;-40
2023/04/09 03:46:23;;;;;;;14.90;11.77;;;5.90;99.90;;;;;;5004865;28;20178;-41
2023/04/09 03:48:50;;;;;;;13.53;11.13;;;5.90;99.90;;;;;;5012099;28;20230;-39
2023/04/09 03:51:17;;;;;;;12.97;11.17;;;5.80;99.90;;;;;;5012183;28;20189;-39
2023/04/09 03:53:48;;;;;;;14.63;11.70;;;5.80;99.90;;;;;;5011544;28;20217;-37
2023/04/09 03:56:15;;;;;;;15.77;12.13;;;5.80;99.90;;;;;;5026983;28;20244;-42
2023/04/09 03:58:41;;;;;;;13.77;12.10;;;5.80;99.90;;;;;;5003886;28;20183;-41
2023/04/09 04:01:09;;;;;;;14.23;11.83;;;5.90;99.90;;;;;;5016069;28;20179;-39
2023/04/09 04:03:40;;;;;;;13.57;11.50;;;5.80;99.90;;;;;;5012483;28;20181;-41
2023/04/09 04:06:11;;;;;;;14.10;11.77;;;5.80;99.90;;;;;;5015380;28;20187;-41
2023/04/09 04:08:48;;;;;;;13.37;11.23;;;5.90;99.90;;;;;;5015957;28;20194;-41
2023/04/09 04:11:15;;;;;;;12.50;10.97;;;5.90;99.90;;;;;;5016045;28;20187;-42
2023/04/09 04:13:41;;;;;;;14.57;11.73;;;5.90;99.90;;;;;;5032106;28;20183;-41
2023/04/09 04:16:09;;;;;;;11.43;10.03;;;5.80;99.90;;;;;;5033386;28;20203;-40
2023/04/09 04:18:36;;;;;;;12.80;10.23;;;5.80;99.90;;;;;;5018100;28;20170;-41
2023/04/09 04:21:03;;;;;;;13.80;11.13;;;5.70;99.90;;;;;;5015435;28;20183;-41
2023/04/09 04:23:30;;;;;;;13.20;11.37;;;5.70;99.90;;;;;;5031638;28;20203;-40
2023/04/09 04:26:12;;;;;;;12.73;10.67;;;5.70;99.90;;;;;;5012275;28;20181;-41
2023/04/09 04:28:40;;;;;;;14.40;11.23;;;5.70;99.90;;;;;;4996291;28;20262;-42
2023/04/09 04:31:11;;;;;;;13.60;11.53;;;5.70;99.90;;;;;;5004923;28;20234;-41
2023/04/09 04:33:39;;;;;;;13.47;10.80;;;5.70;99.90;;;;;;5015485;28;20269;-40
2023/04/09 04:36:11;;;;;;;13.63;11.50;;;5.60;99.90;;;;;;5031370;28;20202;-41
2023/04/09 04:38:55;;;;;;;13.93;10.53;;;5.60;99.90;;;;;;5015073;28;20691;-41
2023/04/09 04:41:29;;;;;;;15.10;12.13;;;5.60;99.90;;;;;;5017567;28;20174;-39
2023/04/09 04:44:15;;;;;;;13.87;11.23;;;5.60;99.90;;;;;;5031707;28;20213;-41
2023/04/09 04:46:41;;;;;;;13.57;11.00;;;5.60;99.90;;;;;;5014693;28;20278;-42
2023/04/09 04:49:07;;;;;;;14.70;11.27;;;5.70;99.90;;;;;;5015286;28;20310;-42
2023/04/09 04:51:40;;;;;;;17.40;12.63;;;5.70;99.90;;;;;;5031611;28;20670;-41
2023/04/09 04:54:10;;;;;;;16.37;12.57;;;5.70;99.90;;;;;;5014614;28;20271;-41
2023/04/09 04:56:37;;;;;;;16.40;12.33;;;5.70;99.90;;;;;;4995692;28;20211;-40
2023/04/09 04:59:17;;;;;;;14.00;11.77;;;5.70;99.90;;;;;;5012067;28;20199;-39
2023/04/09 05:01:54;;;;;;;14.57;12.13;;;5.80;99.90;;;;;;4996722;28;20184;-41
2023/04/09 05:04:20;;;;;;;13.50;11.53;;;5.80;99.90;;;;;;5015138;28;20176;-40
2023/04/09 05:06:46;;;;;;;16.27;12.57;;;5.80;99.90;;;;;;5014592;28;20174;-41
2023/04/09 05:09:17;;;;;;;14.23;12.17;;;5.90;99.90;;;;;;5011605;28;20255;-41
2023/04/09 05:11:57;;;;;;;15.00;12.43;;;6.00;99.90;;;;;;4999754;28;20190;-41
2023/04/09 05:14:24;;;;;;;18.13;13.10;;;6.00;99.90;;;;;;5014193;28;20206;-41
2023/04/09 05:16:51;;;;;;;16.30;12.93;;;6.00;99.90;;;;;;5005541;28;20204;-41
2023/04/09 05:19:20;;;;;;;15.63;12.07;;;6.10;99.90;;;;;;5011697;28;20196;-41
2023/04/09 05:21:47;;;;;;;14.83;12.20;;;6.10;99.90;;;;;;5013796;28;20171;-40
2023/04/09 05:24:14;;;;;;;14.53;12.53;;;6.10;99.90;;;;;;5010612;28;20181;-41
2023/04/09 05:26:41;;;;;;;15.20;12.13;;;6.20;99.90;;;;;;5030321;28;20179;-40
2023/04/09 05:29:11;;;;;;;13.83;11.27;;;6.20;99.90;;;;;;5031905;28;20200;-39
2023/04/09 05:31:41;;;;;;;13.10;11.40;;;6.20;99.90;;;;;;5029859;28;20182;-41
2023/04/09 05:34:14;;;;;;;13.57;11.53;;;6.20;99.90;;;;;;5010174;28;20190;-40
2023/04/09 05:36:48;;;;;;;14.90;11.40;;;6.20;99.90;;;;;;5014073;28;20238;-41
2023/04/09 05:39:15;;;;;;;13.97;11.60;;;6.20;99.90;;;;;;5013427;28;20198;-42
2023/04/09 05:41:43;;;;;;;14.77;11.87;;;6.30;99.90;;;;;;5007047;28;20260;-40
2023/04/09 05:44:28;;;;;;;14.60;11.40;;;6.30;99.90;;;;;;5011400;28;20193;-40
2023/04/09 05:47:00;;;;;;;14.00;11.17;;;6.30;99.90;;;;;;5023806;28;20275;-39
2023/04/09 05:49:32;;;;;;;13.87;11.77;;;6.30;99.90;;;;;;5013664;28;20282;-40
2023/04/09 05:52:00;;;;;;;14.93;11.80;;;6.40;99.90;;;;;;5013592;28;20199;-41
2023/04/09 05:54:30;;;;;;;14.07;11.77;;;6.40;99.90;;;;;;5011824;28;20177;-42
2023/04/09 05:56:56;;;;;;;16.07;12.57;;;6.50;99.90;;;;;;5013410;28;20202;-41
2023/04/09 05:59:22;;;;;;;14.93;12.00;;;6.50;99.90;;;;;;5024428;28;20202;-40
2023/04/09 06:01:48;;;;;;;13.83;11.80;;;6.50;99.90;;;;;;5014219;28;20181;-41
2023/04/09 06:04:14;;;;;;;12.23;10.93;;;6.50;99.90;;;;;;5013782;28;20276;-41
2023/04/09 06:06:40;;;;;;;13.83;11.10;;;6.50;99.90;;;;;;5013689;28;20188;-41
2023/04/09 06:09:05;;;;;;;15.30;12.77;;;6.50;99.90;;;;;;5031433;28;20212;-41
2023/04/09 06:11:32;;;;;;;16.47;12.03;;;6.50;99.90;;;;;;5013271;28;20185;-39
2023/04/09 06:13:59;;;;;;;14.07;11.43;;;6.50;99.90;;;;;;5012956;28;20184;-40
2023/04/09 06:16:25;;;;;;;14.00;12.50;;;6.60;99.90;;;;;;5029665;28;20208;-41
2023/04/09 06:18:53;;;;;;;15.87;12.87;;;6.60;99.90;;;;;;5032078;28;20662;-40
2023/04/09 06:21:19;;;;;;;13.57;11.90;;;6.60;99.90;;;;;;5023240;28;20555;-41
2023/04/09 06:23:45;;;;;;;15.50;12.67;;;6.60;99.90;;;;;;5029637;28;20181;-41
2023/04/09 06:26:10;;;;;;;16.47;12.60;;;6.60;99.90;;;;;;5013254;28;20202;-42
2023/04/09 06:28:36;;;;;;;13.90;11.90;;;6.70;99.90;;;;;;5010791;28;20186;-41
2023/04/09 06:31:02;;;;;;;15.33;12.60;;;6.70;99.90;;;;;;5025674;28;20220;-41
2023/04/09 06:33:28;;;;;;;14.73;12.47;;;6.80;99.90;;;;;;5013635;28;20190;-39
2023/04/09 06:35:54;;;;;;;14.90;12.63;;;6.90;99.90;;;;;;5009782;28;20193;-40
2023/04/09 06:38:20;;;;;;;15.77;12.43;;;7.00;99.90;;;;;;5028602;28;20200;-41
2023/04/09 06:40:45;;;;;;;15.93;13.30;;;7.10;99.90;;;;;;5001267;28;20220;-40
2023/04/09 06:43:11;;;;;;;14.63;13.10;;;7.20;99.90;;;;;;5008446;28;20184;-41
2023/04/09 06:45:43;;;;;;;15.70;12.30;;;7.20;99.90;;;;;;5004344;28;20188;-41
2023/04/09 06:48:10;;;;;;;14.83;13.03;;;7.30;99.90;;;;;;5030964;28;20177;-41
2023/04/09 06:50:35;;;;;;;15.73;12.93;;;7.30;99.90;;;;;;5030733;28;20251;-37
2023/04/09 06:53:01;;;;;;;17.27;13.90;;;7.40;99.90;;;;;;5013395;28;20266;-41
2023/04/09 06:55:27;;;;;;;17.07;13.37;;;7.50;99.90;;;;;;5030556;28;20183;-41
2023/04/09 06:57:53;;;;;;;16.77;13.73;;;7.50;99.90;;;;;;5029474;28;20327;-38
2023/04/09 07:00:19;;;;;;;17.70;14.20;;;7.60;99.90;;;;;;5012286;28;20320;-41
2023/04/09 07:02:45;;;;;;;17.40;14.23;;;7.70;99.90;;;;;;5009612;28;20182;-41
2023/04/09 07:05:11;;;;;;;16.37;14.07;;;7.90;99.90;;;;;;4996266;28;20194;-41
2023/04/09 07:07:37;;;;;;;18.10;13.97;;;8.00;99.90;;;;;;5014342;28;20531;-41
2023/04/09 07:10:05;;;;;;;16.90;14.47;;;8.10;99.90;;;;;;5013553;28;20206;-41
2023/04/09 07:12:32;;;;;;;19.57;14.77;;;8.20;99.90;;;;;;5013993;28;20186;-42
2023/04/09 07:14:59;;;;;;;18.93;15.17;;;8.30;99.90;;;;;;5012169;28;20193;-41
2023/04/09 07:17:24;;;;;;;17.67;15.20;;;8.30;99.90;;;;;;5012802;28;20663;-40
2023/04/09 07:19:50;;;;;;;17.50;14.57;;;8.40;99.90;;;;;;5013889;28;20244;-42
2023/04/09 07:22:17;;;;;;;17.60;15.40;;;8.50;99.90;;;;;;5012979;28;20312;-41
2023/04/09 07:24:42;;;;;;;17.07;14.37;;;8.50;99.90;;;;;;5012946;28;20182;-41
2023/04/09 07:27:09;;;;;;;16.43;14.00;;;8.70;99.90;;;;;;5013085;28;20197;-41
2023/04/09 07:29:35;;;;;;;18.27;14.70;;;8.70;99.90;;;;;;5012947;28;20194;-41
2023/04/09 07:32:02;;;;;;;17.60;14.93;;;8.90;99.90;;;;;;5012904;28;20185;-41
2023/04/09 07:34:28;;;;;;;18.93;14.73;;;8.80;99.90;;;;;;5029639;28;20183;-41
2023/04/09 07:36:54;;;;;;;18.00;14.90;;;8.80;99.90;;;;;;5013096;28;20217;-41
2023/04/09 07:39:21;;;;;;;19.43;15.40;;;8.90;99.90;;;;;;5011879;28;20238;-41
2023/04/09 07:41:47;;;;;;;18.17;14.90;;;9.10;99.90;;;;;;5013735;28;20190;-39
2023/04/09 07:44:13;;;;;;;18.33;15.10;;;9.30;99.90;;;;;;5030751;28;20213;-42
2023/04/09 07:46:40;;;;;;;18.63;15.17;;;9.40;99.90;;;;;;5029902;28;20555;-41
2023/04/09 07:49:05;;;;;;;18.00;15.40;;;9.40;99.90;;;;;;5012729;28;20214;-42
2023/04/09 07:51:31;;;;;;;17.20;14.70;;;9.60;99.90;;;;;;5015049;28;20182;-41
2023/04/09 07:53:57;;;;;;;16.70;13.93;;;9.60;99.90;;;;;;5029177;28;20189;-41
2023/04/09 07:56:23;;;;;;;16.30;11.70;;;9.70;99.90;;;;;;5012324;28;20229;-40
2023/04/09 07:58:49;;;;;;;15.63;12.83;;;10.00;99.90;;;;;;5028541;28;20209;-41
2023/04/09 08:01:15;;;;;;;14.03;12.53;;;10.30;99.90;;;;;;5020459;28;20247;-40
2023/04/09 08:03:43;;;;;;;14.37;12.17;;;10.60;99.90;;;;;;5031410;28;20205;-42
2023/04/09 08:06:09;;;;;;;13.87;12.10;;;10.80;99.90;;;;;;5030098;28;20187;-42
2023/04/09 08:08:36;;;;;;;13.93;11.73;;;11.00;99.90;;;;;;5030296;28;20206;-42
2023/04/09 08:11:02;;;;;;;11.30;10.17;;;11.30;99.90;;;;;;5012961;28;20198;-41
2023/04/09 08:13:29;;;;;;;11.90;10.03;;;11.40;99.90;;;;;;5012250;28;20179;-41
2023/04/09 08:15:55;;;;;;;12.60;10.83;;;11.50;99.90;;;;;;5028592;28;20382;-41
2023/04/09 08:18:22;;;;;;;11.90;9.90;;;11.60;99.90;;;;;;5013233;28;20211;-41
2023/04/09 08:20:49;;;;;;;11.27;10.07;;;11.70;99.90;;;;;;5012973;28;20224;-42
2023/04/09 08:23:15;;;;;;;9.40;8.40;;;11.80;99.90;;;;;;5008826;28;20184;-41
2023/04/09 08:25:44;;;;;;;8.53;7.23;;;11.90;99.90;;;;;;5034602;28;20318;-41
2023/04/09 08:28:11;;;;;;;8.13;7.23;;;12.10;99.90;;;;;;5041368;28;20263;-41
2023/04/09 08:30:37;;;;;;;9.03;7.80;;;12.10;99.90;;;;;;5023785;28;20283;-42
2023/04/09 08:33:04;;;;;;;8.63;7.60;;;12.00;99.90;;;;;;5033003;28;20197;-42
2023/04/09 08:35:30;;;;;;;7.57;6.77;;;11.70;99.90;;;;;;5022609;28;20220;-41
2023/04/09 08:37:56;;;;;;;7.43;6.37;;;11.40;99.90;;;;;;5022236;28;20243;-42
2023/04/09 08:40:24;;;;;;;5.67;4.77;;;11.30;99.90;;;;;;5034436;28;20201;-42
2023/04/09 08:42:55;;;;;;;3.87;3.47;;;11.20;99.90;;;;;;5019288;28;20183;-41
2023/04/09 08:45:22;;;;;;;5.80;4.00;;;11.10;99.90;;;;;;5039543;28;20174;-42
2023/04/09 08:47:49;;;;;;;5.37;4.80;;;11.10;99.90;;;;;;5039605;28;20181;-41
2023/04/09 08:50:15;;;;;;;5.43;4.93;;;11.10;99.90;;;;;;5023923;28;20195;-42
2023/04/09 08:52:44;;;;;;;8.83;6.47;;;11.10;99.90;;;;;;5046379;28;20176;-41
2023/04/09 08:55:11;;;;;;;6.60;5.97;;;11.10;99.90;;;;;;5034848;28;20215;-42
2023/04/09 08:57:38;;;;;;;6.73;6.00;;;11.10;99.90;;;;;;4986653;28;20211;-42
2023/04/09 09:00:07;;;;;;;7.87;5.60;;;11.10;99.90;;;;;;5037970;28;20186;-41
2023/04/09 09:02:33;;;;;;;6.53;5.90;;;11.10;99.90;;;;;;4999657;28;20178;-42
2023/04/09 09:05:00;;;;;;;8.53;7.40;;;11.20;99.90;;;;;;5026967;28;20178;-41
2023/04/09 09:07:29;;;;;;;9.53;8.40;;;11.20;99.90;;;;;;5013746;28;20179;-42
2023/04/09 09:10:03;;;;;;;8.40;7.47;;;11.20;99.90;;;;;;5014208;28;20215;-42
2023/04/09 09:12:40;;;;;;;9.73;7.67;;;11.20;99.90;;;;;;5014055;28;20214;-42
2023/04/09 09:15:28;;;;;;;7.63;6.83;;;11.20;99.90;;;;;;5031960;28;20248;-42
2023/04/09 09:17:58;;;;;;;7.80;7.00;;;11.30;99.90;;;;;;5013864;28;20211;-42
2023/04/09 09:20:28;;;;;;;8.03;6.93;;;11.20;99.90;;;;;;5032017;28;20223;-40
2023/04/09 09:22:56;;;;;;;8.97;7.00;;;11.20;99.90;;;;;;5033038;28;20253;-40
2023/04/09 09:25:24;;;;;;;7.30;6.60;;;11.30;99.90;;;;;;5012726;28;20170;-42
2023/04/09 09:27:51;;;;;;;7.67;6.97;;;11.20;99.90;;;;;;5029217;28;20225;-41
2023/04/09 09:30:22;;;;;;;7.83;6.80;;;11.30;99.90;;;;;;5030958;28;20213;-41
2023/04/09 09:33:04;;;;;;;8.63;7.50;;;11.30;99.90;;;;;;5031480;28;20190;-41
2023/04/09 09:35:30;;;;;;;8.80;7.13;;;11.20;99.90;;;;;;5011460;28;20185;-42
2023/04/09 09:38:03;;;;;;;8.13;7.33;;;11.10;99.90;;;;;;5014064;28;20225;-42
2023/04/09 09:40:30;;;;;;;8.00;7.20;;;11.10;99.90;;;;;;5030633;28;20793;-42
2023/04/09 09:42:56;;;;;;;8.67;7.77;;;11.10;99.90;;;;;;5033205;28;20182;-42
2023/04/09 09:45:23;;;;;;;9.00;7.40;;;11.20;99.90;;;;;;5012553;28;20181;-42
2023/04/09 09:47:50;;;;;;;8.47;7.57;;;11.20;99.90;;;;;;5012377;28;20288;-41
2023/04/09 09:50:16;;;;;;;7.93;7.13;;;11.30;99.90;;;;;;5021911;28;20208;-41
2023/04/09 09:52:45;;;;;;;8.77;7.67;;;11.40;99.90;;;;;;5012727;28;20187;-42
2023/04/09 09:55:14;;;;;;;9.13;8.10;;;11.60;99.90;;;;;;5010425;28;20188;-42
2023/04/09 09:57:46;;;;;;;8.00;6.73;;;11.70;99.90;;;;;;5025231;28;20206;-42
2023/04/09 10:00:13;;;;;;;8.63;7.57;;;11.80;99.90;;;;;;5030628;28;20199;-42
2023/04/09 10:02:46;;;;;;;7.67;6.87;;;11.90;99.90;;;;;;5027849;28;20244;-42
2023/04/09 10:05:12;;;;;;;6.77;6.07;;;11.90;99.90;;;;;;5014378;28;20189;-40
2023/04/09 10:07:38;;;;;;;5.83;5.33;;;11.60;99.90;;;;;;5009324;28;20181;-40
2023/04/09 10:10:06;;;;;;;6.17;5.30;;;11.60;99.90;;;;;;5010817;28;20197;-42
2023/04/09 10:12:32;;;;;;;7.03;5.53;;;11.70;99.90;;;;;;5011242;28;20181;-42
2023/04/09 10:15:03;;;;;;;6.03;5.20;;;11.70;99.90;;;;;;5010678;28;20182;-42
2023/04/09 10:17:30;;;;;;;6.63;5.67;;;11.60;99.90;;;;;;5029972;28;20265;-42
2023/04/09 10:20:15;;;;;;;5.90;5.40;;;11.70;99.90;;;;;;5031699;28;20196;-42
2023/04/09 10:22:44;;;;;;;5.80;5.20;;;11.60;99.90;;;;;;5046067;28;20181;-42
2023/04/09 10:25:10;;;;;;;5.90;5.30;;;11.70;99.90;;;;;;5013872;28;20185;-42
2023/04/09 10:27:36;;;;;;;6.23;5.63;;;11.80;99.90;;;;;;5014291;28;20243;-41
2023/04/09 10:30:04;;;;;;;8.00;6.33;;;11.90;99.90;;;;;;5031453;28;20200;-42
2023/04/09 10:32:34;;;;;;;5.73;5.10;;;12.00;99.90;;;;;;5013155;28;20279;-41
2023/04/09 10:35:02;;;;;;;5.67;5.17;;;12.00;99.90;;;;;;5000659;28;20185;-42
2023/04/09 10:37:29;;;;;;;6.57;5.77;;;12.10;99.90;;;;;;5010923;28;20206;-42
2023/04/09 10:39:56;;;;;;;6.40;5.53;;;12.20;99.90;;;;;;5013685;28;20197;-41
2023/04/09 10:42:27;;;;;;;7.23;5.70;;;12.30;99.90;;;;;;5029382;28;20176;-41
2023/04/09 10:45:06;;;;;;;6.90;6.20;;;12.30;99.90;;;;;;5027678;28;20201;-40
2023/04/09 10:47:38;;;;;;;7.00;6.07;;;12.30;99.90;;;;;;5012218;28;20640;-42
2023/04/09 10:50:35;;;;;;;6.57;5.97;;;12.40;99.90;;;;;;5011265;28;20234;-42
2023/04/09 10:53:03;;;;;;;7.07;6.23;;;12.30;99.90;;;;;;5004984;28;20199;-40
2023/04/09 10:55:31;;;;;;;7.53;6.70;;;12.20;99.90;;;;;;5012483;28;20188;-41
2023/04/09 10:57:57;;;;;;;7.53;6.73;;;12.30;99.90;;;;;;4995956;28;20209;-41
2023/04/09 11:00:23;;;;;;;8.37;7.47;;;12.30;99.90;;;;;;5019168;28;20201;-41
2023/04/09 11:03:01;;;;;;;8.57;7.73;;;12.30;99.90;;;;;;4995703;28;20200;-39
2023/04/09 11:05:32;;;;;;;8.10;7.30;;;12.30;99.90;;;;;;4992713;28;20188;-42
2023/04/09 11:08:12;;;;;;;7.87;6.97;;;12.40;99.90;;;;;;5011854;28;20217;-42
2023/04/09 11:10:40;;;;;;;7.70;6.90;;;12.50;99.90;;;;;;4993296;28;20276;-42
2023/04/09 11:13:10;;;;;;;8.00;7.20;;;12.60;99.90;;;;;;4977107;28;20204;-42
2023/04/09 11:15:36;;;;;;;7.80;7.00;;;12.80;99.90;;;;;;4976875;28;20197;-40
2023/04/09 11:18:08;;;;;;;8.33;7.53;;;13.10;99.90;;;;;;4993724;28;20214;-42
2023/04/09 11:20:38;;;;;;;7.03;6.33;;;13.10;99.90;;;;;;4993835;28;20265;-42
2023/04/09 11:23:05;;;;;;;8.33;7.00;;;13.20;99.90;;;;;;5011598;28;20210;-42
2023/04/09 11:25:34;;;;;;;7.57;6.87;;;13.40;99.90;;;;;;4996072;28;20195;-42
2023/04/09 11:28:03;;;;;;;7.57;6.87;;;13.30;99.90;;;;;;5016206;28;20232;-41
2023/04/09 11:30:30;;;;;;;7.30;6.33;;;13.40;99.90;;;;;;5032294;28;20209;-42
2023/04/09 11:32:56;;;;;;;7.57;6.77;;;13.40;99.90;;;;;;5012656;28;20193;-42
2023/04/09 11:35:22;;;;;;;7.33;6.60;;;13.40;99.90;;;;;;5013111;28;20182;-42
2023/04/09 11:37:51;;;;;;;8.10;7.30;;;13.50;99.90;;;;;;5030284;28;20217;-41
2023/04/09 11:40:20;;;;;;;7.20;6.50;;;13.20;99.90;;;;;;5026650;28;20210;-42
2023/04/09 11:42:50;;;;;;;6.77;6.17;;;13.10;99.90;;;;;;5012084;28;20176;-42
2023/04/09 11:45:20;;;;;;;7.90;7.10;;;13.20;99.90;;;;;;5029926;28;20177;-42
2023/04/09 11:47:46;;;;;;;7.03;6.33;;;13.00;99.90;;;;;;4993439;28;20198;-42
2023/04/09 11:50:14;;;;;;;6.70;6.00;;;13.00;99.90;;;;;;5018779;28;20296;-42
2023/04/09 11:52:41;;;;;;;6.37;5.77;;;13.10;99.90;;;;;;5030000;28;20183;-42
2023/04/09 11:55:08;;;;;;;6.47;5.87;;;13.20;99.90;;;;;;5026832;28;20213;-42
2023/04/09 11:57:46;;;;;;;7.77;6.67;;;13.30;99.90;;;;;;5002066;28;20211;-42
2023/04/09 12:00:16;;;;;;;7.10;6.37;;;13.30;99.90;;;;;;5011116;28;20209;-42
2023/04/09 12:02:46;;;;;;;6.37;5.77;;;13.30;99.90;;;;;;5027114;28;20182;-42
2023/04/09 12:05:21;;;;;;;6.67;6.07;;;13.40;99.90;;;;;;5031794;28;20178;-42
2023/04/09 12:07:46;;;;;;;5.87;5.20;;;13.40;99.90;;;;;;5021717;28;20182;-39
2023/04/09 12:10:12;;;;;;;5.87;5.30;;;13.60;99.90;;;;;;5033055;28;20277;-42
2023/04/09 12:12:43;;;;;;;6.20;5.60;;;13.70;99.90;;;;;;5038445;28;20186;-42
2023/04/09 12:15:21;;;;;;;6.47;5.87;;;13.80;99.90;;;;;;5040121;28;20187;-42
2023/04/09 12:17:49;;;;;;;6.13;5.47;;;13.80;99.90;;;;;;5040521;28;20236;-42
2023/04/09 12:20:29;;;;;;;5.80;5.23;;;13.90;99.90;;;;;;5021795;28;20196;-42
2023/04/09 12:22:56;;;;;;;5.50;5.00;;;14.20;99.90;;;;;;5031616;28;20237;-42
2023/04/09 12:25:22;;;;;;;5.90;5.30;;;14.40;99.90;;;;;;5033368;28;20274;-41
2023/04/09 12:27:48;;;;;;;5.00;4.50;;;14.60;99.90;;;;;;5039729;28;20267;-40
2023/04/09 12:30:13;;;;;;;5.17;4.67;;;14.80;99.90;;;;;;5031696;28;20204;-42
2023/04/09 12:32:39;;;;;;;5.30;4.80;;;15.20;99.90;;;;;;5014943;28;20191;-42
2023/04/09 12:35:05;;;;;;;5.10;4.60;;;15.50;99.90;;;;;;5032692;28;20187;-41
2023/04/09 12:37:31;;;;;;;6.03;5.43;;;15.80;99.90;;;;;;5000042;28;20226;-42
2023/04/09 12:39:57;;;;;;;6.37;5.30;;;16.00;99.90;;;;;;5040497;28;20200;-42
2023/04/09 12:42:22;;;;;;;5.60;5.10;;;15.70;99.90;;;;;;5011599;28;20282;-42
2023/04/09 12:44:49;;;;;;;5.20;4.67;;;16.00;99.90;;;;;;5015181;28;20190;-42
2023/04/09 12:47:14;;;;;;;5.10;4.60;;;16.10;99.90;;;;;;4999494;28;20183;-43
2023/04/09 12:49:44;;;;;;;4.97;4.50;;;16.30;99.90;;;;;;5014760;28;20206;-42
2023/04/09 12:52:09;;;;;;;5.87;5.27;;;16.30;99.90;;;;;;5015009;28;20241;-41